AFR94MT LFML-LEPA
Flight info
| Callsign | AFR94MT |
|---|---|
| Flight time | 1h 10m |
| Altitude | 32000 |
| Route | VATI6S VATIR N852 VERSO L129 LUNIK LUNI3M |
| Aircraft | A319/M-SDE3FGHIRWY/L |
Departure
| Time | 2026-05-06 19:31 |
|---|---|
| Airport | Marseille Provence Airport (LFML) |
Arrival
| Time | 2026-05-06 20:42 |
|---|---|
| Airport | Palma de Mallorca Airport (LEPA) |
| Time | Latitude | Longitude | Altitude | Speed | Heading |
|---|---|---|---|---|---|
| 2026-05-06 19:20 | 43.44103 | 5.21873 | 20 ft | 0 kts | 135° |
| 2026-05-06 19:24 | 43.44097 | 5.21881 | 19 ft | 4 kts | 135° |
| 2026-05-06 19:24 | 43.44059 | 5.21934 | 19 ft | 11 kts | 134° |
| 2026-05-06 19:24 | 43.43990 | 5.21970 | 20 ft | 12 kts | 208° |
| 2026-05-06 19:25 | 43.43939 | 5.21907 | 19 ft | 10 kts | 224° |
| 2026-05-06 19:25 | 43.43862 | 5.21873 | 19 ft | 15 kts | 147° |
| 2026-05-06 19:25 | 43.43799 | 5.21960 | 19 ft | 10 kts | 134° |
| 2026-05-06 19:25 | 43.43743 | 5.22025 | 19 ft | 11 kts | 149° |
| 2026-05-06 19:26 | 43.43669 | 5.22081 | 19 ft | 12 kts | 150° |
| 2026-05-06 19:26 | 43.43592 | 5.22140 | 19 ft | 13 kts | 148° |
| 2026-05-06 19:26 | 43.43519 | 5.22201 | 19 ft | 14 kts | 149° |
| 2026-05-06 19:26 | 43.43464 | 5.22246 | 19 ft | 6 kts | 149° |
| 2026-05-06 19:27 | 43.43417 | 5.22279 | 19 ft | 8 kts | 162° |
| 2026-05-06 19:27 | 43.43357 | 5.22301 | 19 ft | 9 kts | 164° |
| 2026-05-06 19:27 | 43.43312 | 5.22350 | 19 ft | 10 kts | 133° |
| 2026-05-06 19:27 | 43.43253 | 5.22435 | 19 ft | 12 kts | 134° |
| 2026-05-06 19:28 | 43.43186 | 5.22528 | 19 ft | 14 kts | 133° |
| 2026-05-06 19:28 | 43.43110 | 5.22637 | 19 ft | 16 kts | 133° |
| 2026-05-06 19:28 | 43.43038 | 5.22740 | 19 ft | 18 kts | 134° |
| 2026-05-06 19:28 | 43.42971 | 5.22835 | 19 ft | 8 kts | 134° |
| 2026-05-06 19:29 | 43.42913 | 5.22869 | 19 ft | 10 kts | 182° |
| 2026-05-06 19:29 | 43.42850 | 5.22818 | 19 ft | 12 kts | 228° |
| 2026-05-06 19:29 | 43.42822 | 5.22732 | 19 ft | 12 kts | 281° |
| 2026-05-06 19:29 | 43.42872 | 5.22639 | 19 ft | 0 kts | 315° |
| 2026-05-06 19:30 | 43.42875 | 5.22635 | 19 ft | 1 kts | 314° |
| 2026-05-06 19:30 | 43.42892 | 5.22611 | 19 ft | 7 kts | 315° |
| 2026-05-06 19:30 | 43.43102 | 5.22313 | 19 ft | 82 kts | 313° |
| 2026-05-06 19:30 | 43.43663 | 5.21511 | 20 ft | 147 kts | 313° |
| 2026-05-06 19:31 | 43.44466 | 5.20378 | 270 ft | 176 kts | 312° |
| 2026-05-06 19:31 | 43.45366 | 5.19140 | 730 ft | 194 kts | 313° |
| 2026-05-06 19:31 | 43.47284 | 5.16212 | 1753 ft | 235 kts | 300° |
| 2026-05-06 19:32 | 43.47697 | 5.14023 | 2508 ft | 246 kts | 264° |
| 2026-05-06 19:32 | 43.47039 | 5.11843 | 3279 ft | 261 kts | 231° |
| 2026-05-06 19:32 | 43.45467 | 5.10389 | 3781 ft | 290 kts | 201° |
| 2026-05-06 19:32 | 43.43498 | 5.09777 | 4052 ft | 321 kts | 191° |
| 2026-05-06 19:33 | 43.41250 | 5.09041 | 4379 ft | 344 kts | 205° |
| 2026-05-06 19:33 | 43.39216 | 5.07399 | 5231 ft | 326 kts | 216° |
| 2026-05-06 19:33 | 43.37480 | 5.05708 | 5737 ft | 290 kts | 217° |
| 2026-05-06 19:33 | 43.35899 | 5.04162 | 5756 ft | 273 kts | 217° |
| 2026-05-06 19:34 | 43.34370 | 5.02716 | 5696 ft | 260 kts | 216° |
| 2026-05-06 19:34 | 43.32866 | 5.01334 | 5405 ft | 258 kts | 216° |
| 2026-05-06 19:34 | 43.31386 | 5.00005 | 5165 ft | 263 kts | 215° |
| 2026-05-06 19:34 | 43.29785 | 4.98589 | 5718 ft | 270 kts | 215° |
| 2026-05-06 19:35 | 43.28190 | 4.97189 | 6420 ft | 275 kts | 215° |
| 2026-05-06 19:35 | 43.26587 | 4.95792 | 7117 ft | 278 kts | 215° |
| 2026-05-06 19:35 | 43.25045 | 4.94453 | 7781 ft | 280 kts | 215° |
| 2026-05-06 19:35 | 43.23400 | 4.93028 | 8484 ft | 281 kts | 215° |
| 2026-05-06 19:36 | 43.21761 | 4.91610 | 9182 ft | 283 kts | 214° |
| 2026-05-06 19:36 | 43.20102 | 4.90175 | 9932 ft | 285 kts | 215° |
| 2026-05-06 19:36 | 43.18409 | 4.88713 | 10692 ft | 291 kts | 215° |
| 2026-05-06 19:36 | 43.16688 | 4.87227 | 11444 ft | 297 kts | 214° |
| 2026-05-06 19:37 | 43.14915 | 4.85699 | 12188 ft | 303 kts | 215° |
| 2026-05-06 19:37 | 43.13119 | 4.84151 | 12835 ft | 312 kts | 215° |
| 2026-05-06 19:37 | 43.11258 | 4.82549 | 13608 ft | 315 kts | 215° |
| 2026-05-06 19:37 | 43.10037 | 4.81498 | 14122 ft | 317 kts | 215° |
| 2026-05-06 19:38 | 43.07536 | 4.79348 | 15053 ft | 323 kts | 215° |
| 2026-05-06 19:38 | 43.05577 | 4.77685 | 15553 ft | 334 kts | 213° |
| 2026-05-06 19:38 | 43.03561 | 4.76122 | 16213 ft | 339 kts | 212° |
| 2026-05-06 19:38 | 43.01483 | 4.74536 | 16924 ft | 342 kts | 212° |
| 2026-05-06 19:39 | 42.99390 | 4.72943 | 17616 ft | 345 kts | 211° |
| 2026-05-06 19:39 | 42.97272 | 4.71334 | 18285 ft | 348 kts | 211° |
| 2026-05-06 19:39 | 42.95158 | 4.69732 | 18933 ft | 350 kts | 212° |
| 2026-05-06 19:39 | 42.93025 | 4.68117 | 19604 ft | 352 kts | 212° |
| 2026-05-06 19:40 | 42.90902 | 4.66512 | 20257 ft | 353 kts | 212° |
| 2026-05-06 19:40 | 42.88730 | 4.64873 | 20935 ft | 354 kts | 212° |
| 2026-05-06 19:40 | 42.86582 | 4.63262 | 21589 ft | 355 kts | 212° |
| 2026-05-06 19:40 | 42.84399 | 4.61623 | 22181 ft | 357 kts | 212° |
| 2026-05-06 19:41 | 42.82230 | 4.59994 | 22821 ft | 357 kts | 212° |
| 2026-05-06 19:41 | 42.80062 | 4.58365 | 23449 ft | 356 kts | 213° |
| 2026-05-06 19:41 | 42.77908 | 4.56746 | 24063 ft | 356 kts | 213° |
| 2026-05-06 19:41 | 42.75747 | 4.55121 | 24617 ft | 357 kts | 213° |
| 2026-05-06 19:42 | 42.73571 | 4.53484 | 25152 ft | 358 kts | 213° |
| 2026-05-06 19:42 | 42.71389 | 4.51847 | 25701 ft | 358 kts | 213° |
| 2026-05-06 19:42 | 42.69208 | 4.50210 | 26217 ft | 358 kts | 213° |
| 2026-05-06 19:42 | 42.67044 | 4.48585 | 26705 ft | 360 kts | 213° |
| 2026-05-06 19:43 | 42.64840 | 4.46931 | 27124 ft | 362 kts | 213° |
| 2026-05-06 19:43 | 42.62646 | 4.45287 | 27503 ft | 365 kts | 213° |
| 2026-05-06 19:43 | 42.60427 | 4.43625 | 27920 ft | 367 kts | 213° |
| 2026-05-06 19:43 | 42.58173 | 4.41941 | 28325 ft | 368 kts | 213° |
| 2026-05-06 19:44 | 42.55942 | 4.40276 | 28721 ft | 370 kts | 213° |
| 2026-05-06 19:44 | 42.53672 | 4.38581 | 29155 ft | 370 kts | 214° |
| 2026-05-06 19:44 | 42.51427 | 4.36909 | 29676 ft | 368 kts | 214° |
| 2026-05-06 19:44 | 42.49203 | 4.35254 | 30193 ft | 365 kts | 214° |
| 2026-05-06 19:45 | 42.46978 | 4.33592 | 30652 ft | 364 kts | 213° |
| 2026-05-06 19:45 | 42.44804 | 4.31960 | 31016 ft | 366 kts | 214° |
| 2026-05-06 19:45 | 42.42559 | 4.30281 | 31347 ft | 368 kts | 214° |
| 2026-05-06 19:45 | 42.40350 | 4.28632 | 31658 ft | 370 kts | 214° |
| 2026-05-06 19:46 | 42.38147 | 4.26990 | 31914 ft | 372 kts | 214° |
| 2026-05-06 19:46 | 42.35858 | 4.25290 | 31945 ft | 372 kts | 213° |
| 2026-05-06 19:46 | 42.31305 | 4.21919 | 31962 ft | 372 kts | 213° |
| 2026-05-06 19:47 | 42.26770 | 4.18569 | 31961 ft | 373 kts | 213° |
| 2026-05-06 19:47 | 42.22226 | 4.15219 | 31967 ft | 372 kts | 214° |
| 2026-05-06 19:48 | 42.17706 | 4.11891 | 31967 ft | 371 kts | 214° |
| 2026-05-06 19:48 | 42.13175 | 4.08553 | 31975 ft | 371 kts | 214° |
| 2026-05-06 19:49 | 42.08651 | 4.05232 | 31960 ft | 370 kts | 214° |
| 2026-05-06 19:49 | 42.04133 | 4.01922 | 31942 ft | 371 kts | 213° |
| 2026-05-06 19:50 | 41.99789 | 3.98742 | 31929 ft | 370 kts | 214° |
| 2026-05-06 19:50 | 41.95126 | 3.95710 | 31945 ft | 373 kts | 208° |
| 2026-05-06 19:51 | 41.90241 | 3.93349 | 31950 ft | 377 kts | 203° |
| 2026-05-06 19:51 | 41.85107 | 3.91687 | 31949 ft | 380 kts | 198° |
| 2026-05-06 19:52 | 41.79919 | 3.90481 | 31948 ft | 378 kts | 197° |
| 2026-05-06 19:52 | 41.74744 | 3.89280 | 31947 ft | 378 kts | 197° |
| 2026-05-06 19:53 | 41.69541 | 3.88079 | 31947 ft | 378 kts | 197° |
| 2026-05-06 19:53 | 41.64521 | 3.86926 | 31945 ft | 378 kts | 197° |
| 2026-05-06 19:54 | 41.59340 | 3.85732 | 31944 ft | 378 kts | 197° |
| 2026-05-06 19:54 | 41.54214 | 3.84557 | 31937 ft | 361 kts | 197° |
| 2026-05-06 19:55 | 41.51782 | 3.84008 | 31935 ft | 345 kts | 198° |
| 2026-05-06 19:55 | 41.49478 | 3.83487 | 31930 ft | 330 kts | 198° |
| 2026-05-06 19:55 | 41.47258 | 3.82984 | 31927 ft | 316 kts | 198° |
| 2026-05-06 19:55 | 41.45106 | 3.82489 | 31930 ft | 311 kts | 199° |
| 2026-05-06 19:56 | 41.40860 | 3.81505 | 31931 ft | 310 kts | 199° |
| 2026-05-06 19:56 | 41.36598 | 3.80525 | 31932 ft | 311 kts | 198° |
| 2026-05-06 19:57 | 41.32349 | 3.79552 | 31932 ft | 311 kts | 198° |
| 2026-05-06 19:57 | 41.28063 | 3.78576 | 31931 ft | 311 kts | 198° |
| 2026-05-06 19:58 | 41.23826 | 3.77615 | 31931 ft | 312 kts | 198° |
| 2026-05-06 19:58 | 41.19526 | 3.76638 | 31929 ft | 311 kts | 198° |
| 2026-05-06 19:59 | 41.15325 | 3.75481 | 31929 ft | 307 kts | 204° |
| 2026-05-06 19:59 | 41.11394 | 3.73642 | 31930 ft | 303 kts | 208° |
| 2026-05-06 20:00 | 41.07461 | 3.71624 | 31930 ft | 302 kts | 208° |
| 2026-05-06 20:00 | 41.03547 | 3.69613 | 31930 ft | 302 kts | 209° |
| 2026-05-06 20:01 | 40.99636 | 3.67599 | 31930 ft | 303 kts | 208° |
| 2026-05-06 20:01 | 40.95707 | 3.65580 | 31931 ft | 303 kts | 208° |
| 2026-05-06 20:02 | 40.91775 | 3.63562 | 31930 ft | 303 kts | 208° |
| 2026-05-06 20:02 | 40.87849 | 3.61557 | 31930 ft | 303 kts | 208° |
| 2026-05-06 20:03 | 40.83924 | 3.59559 | 31928 ft | 303 kts | 208° |
| 2026-05-06 20:03 | 40.79991 | 3.57556 | 31925 ft | 304 kts | 209° |
| 2026-05-06 20:04 | 40.76039 | 3.55538 | 31929 ft | 303 kts | 208° |
| 2026-05-06 20:04 | 40.72113 | 3.53538 | 31929 ft | 303 kts | 208° |
| 2026-05-06 20:05 | 40.68182 | 3.51535 | 31927 ft | 303 kts | 208° |
| 2026-05-06 20:05 | 40.64223 | 3.49520 | 31926 ft | 304 kts | 208° |
| 2026-05-06 20:06 | 40.60301 | 3.47527 | 31928 ft | 305 kts | 208° |
| 2026-05-06 20:06 | 40.56337 | 3.45515 | 31927 ft | 304 kts | 208° |
| 2026-05-06 20:07 | 40.52394 | 3.43516 | 31929 ft | 305 kts | 208° |
| 2026-05-06 20:07 | 40.48418 | 3.41504 | 31927 ft | 304 kts | 208° |
| 2026-05-06 20:08 | 40.44343 | 3.39912 | 31925 ft | 313 kts | 199° |
| 2026-05-06 20:08 | 40.39911 | 3.39499 | 31925 ft | 324 kts | 188° |
| 2026-05-06 20:09 | 40.35414 | 3.39733 | 31927 ft | 325 kts | 187° |
| 2026-05-06 20:09 | 40.30872 | 3.39992 | 31929 ft | 326 kts | 187° |
| 2026-05-06 20:10 | 40.26366 | 3.40248 | 31930 ft | 325 kts | 187° |
| 2026-05-06 20:10 | 40.21838 | 3.40505 | 31931 ft | 325 kts | 187° |
| 2026-05-06 20:11 | 40.17321 | 3.40759 | 31929 ft | 325 kts | 187° |
| 2026-05-06 20:11 | 40.12785 | 3.41015 | 31927 ft | 325 kts | 187° |
| 2026-05-06 20:12 | 40.08277 | 3.41270 | 31928 ft | 326 kts | 187° |
| 2026-05-06 20:12 | 40.03740 | 3.41525 | 31930 ft | 325 kts | 187° |
| 2026-05-06 20:13 | 39.99228 | 3.41779 | 31923 ft | 325 kts | 187° |
| 2026-05-06 20:13 | 39.94690 | 3.42034 | 31919 ft | 326 kts | 187° |
| 2026-05-06 20:14 | 39.90169 | 3.42286 | 31917 ft | 327 kts | 187° |
| 2026-05-06 20:14 | 39.85599 | 3.42546 | 31917 ft | 327 kts | 187° |
| 2026-05-06 20:15 | 39.81056 | 3.42803 | 31916 ft | 326 kts | 187° |
| 2026-05-06 20:15 | 39.76628 | 3.43054 | 31440 ft | 321 kts | 186° |
| 2026-05-06 20:16 | 39.74428 | 3.43175 | 30958 ft | 321 kts | 186° |
| 2026-05-06 20:16 | 39.72155 | 3.43303 | 30499 ft | 320 kts | 186° |
| 2026-05-06 20:16 | 39.69944 | 3.43424 | 30070 ft | 318 kts | 188° |
| 2026-05-06 20:16 | 39.67795 | 3.43088 | 29639 ft | 300 kts | 207° |
| 2026-05-06 20:17 | 39.66056 | 3.41834 | 29286 ft | 285 kts | 226° |
| 2026-05-06 20:17 | 39.64794 | 3.39902 | 28851 ft | 278 kts | 243° |
| 2026-05-06 20:17 | 39.64131 | 3.37542 | 28394 ft | 278 kts | 260° |
| 2026-05-06 20:17 | 39.64124 | 3.35058 | 27936 ft | 282 kts | 277° |
| 2026-05-06 20:18 | 39.64787 | 3.32663 | 27514 ft | 291 kts | 294° |
| 2026-05-06 20:18 | 39.66112 | 3.30628 | 27110 ft | 303 kts | 314° |
| 2026-05-06 20:18 | 39.67888 | 3.29355 | 26731 ft | 317 kts | 334° |
| 2026-05-06 20:18 | 39.70062 | 3.28903 | 26369 ft | 326 kts | 348° |
| 2026-05-06 20:19 | 39.72343 | 3.28757 | 25954 ft | 327 kts | 349° |
| 2026-05-06 20:19 | 39.74607 | 3.28650 | 25544 ft | 327 kts | 349° |
| 2026-05-06 20:19 | 39.76813 | 3.28543 | 25188 ft | 324 kts | 349° |
| 2026-05-06 20:19 | 39.79041 | 3.28475 | 24832 ft | 326 kts | 357° |
| 2026-05-06 20:20 | 39.81273 | 3.29232 | 24441 ft | 338 kts | 24° |
| 2026-05-06 20:20 | 39.83093 | 3.31135 | 24153 ft | 341 kts | 51° |
| 2026-05-06 20:20 | 39.84168 | 3.33842 | 23830 ft | 338 kts | 78° |
| 2026-05-06 20:20 | 39.84303 | 3.36849 | 23451 ft | 328 kts | 105° |
| 2026-05-06 20:21 | 39.83546 | 3.39546 | 23085 ft | 314 kts | 129° |
| 2026-05-06 20:21 | 39.82136 | 3.41569 | 22728 ft | 297 kts | 152° |
| 2026-05-06 20:21 | 39.80359 | 3.42746 | 22355 ft | 282 kts | 172° |
| 2026-05-06 20:21 | 39.78455 | 3.43096 | 21966 ft | 271 kts | 185° |
| 2026-05-06 20:22 | 39.76574 | 3.43148 | 21584 ft | 271 kts | 186° |
| 2026-05-06 20:22 | 39.74699 | 3.43200 | 21224 ft | 270 kts | 185° |
| 2026-05-06 20:22 | 39.72840 | 3.43275 | 20883 ft | 269 kts | 185° |
| 2026-05-06 20:22 | 39.70965 | 3.43366 | 20552 ft | 268 kts | 185° |
| 2026-05-06 20:23 | 39.69114 | 3.43438 | 20219 ft | 264 kts | 189° |
| 2026-05-06 20:23 | 39.67377 | 3.42940 | 19874 ft | 252 kts | 210° |
| 2026-05-06 20:23 | 39.65926 | 3.41753 | 19552 ft | 244 kts | 225° |
| 2026-05-06 20:23 | 39.64836 | 3.40090 | 19197 ft | 240 kts | 241° |
| 2026-05-06 20:24 | 39.64189 | 3.38131 | 18847 ft | 239 kts | 256° |
| 2026-05-06 20:24 | 39.64005 | 3.35985 | 18485 ft | 240 kts | 271° |
| 2026-05-06 20:24 | 39.64312 | 3.33871 | 18140 ft | 243 kts | 286° |
| 2026-05-06 20:24 | 39.65108 | 3.31913 | 17811 ft | 248 kts | 302° |
| 2026-05-06 20:25 | 39.66266 | 3.30409 | 17497 ft | 255 kts | 318° |
| 2026-05-06 20:25 | 39.67791 | 3.29364 | 17185 ft | 262 kts | 336° |
| 2026-05-06 20:25 | 39.69605 | 3.28934 | 16872 ft | 268 kts | 349° |
| 2026-05-06 20:25 | 39.71462 | 3.28765 | 16519 ft | 267 kts | 344° |
| 2026-05-06 20:26 | 39.73120 | 3.27851 | 15967 ft | 259 kts | 310° |
| 2026-05-06 20:26 | 39.73989 | 3.25902 | 15617 ft | 245 kts | 278° |
| 2026-05-06 20:26 | 39.74037 | 3.23747 | 15289 ft | 241 kts | 257° |
| 2026-05-06 20:26 | 39.73405 | 3.21712 | 14908 ft | 243 kts | 236° |
| 2026-05-06 20:27 | 39.72188 | 3.20205 | 14549 ft | 248 kts | 212° |
| 2026-05-06 20:27 | 39.70530 | 3.19503 | 14201 ft | 255 kts | 187° |
| 2026-05-06 20:27 | 39.68783 | 3.19852 | 13865 ft | 262 kts | 161° |
| 2026-05-06 20:27 | 39.67120 | 3.20831 | 13547 ft | 263 kts | 160° |
| 2026-05-06 20:28 | 39.65378 | 3.21346 | 13172 ft | 254 kts | 190° |
| 2026-05-06 20:28 | 39.63797 | 3.20507 | 12891 ft | 242 kts | 222° |
| 2026-05-06 20:28 | 39.62751 | 3.18834 | 12584 ft | 239 kts | 241° |
| 2026-05-06 20:28 | 39.61972 | 3.16951 | 12211 ft | 241 kts | 242° |
| 2026-05-06 20:29 | 39.61174 | 3.15036 | 11856 ft | 242 kts | 242° |
| 2026-05-06 20:29 | 39.60352 | 3.13117 | 11529 ft | 242 kts | 241° |
| 2026-05-06 20:29 | 39.59521 | 3.11214 | 11198 ft | 242 kts | 241° |
| 2026-05-06 20:29 | 39.58683 | 3.09322 | 10881 ft | 241 kts | 240° |
| 2026-05-06 20:30 | 39.57849 | 3.07451 | 10570 ft | 241 kts | 240° |
| 2026-05-06 20:30 | 39.56191 | 3.03757 | 9944 ft | 240 kts | 240° |
| 2026-05-06 20:30 | 39.55362 | 3.01918 | 9632 ft | 239 kts | 240° |
| 2026-05-06 20:31 | 39.54528 | 3.00071 | 9307 ft | 239 kts | 240° |
| 2026-05-06 20:31 | 39.53678 | 2.98194 | 8980 ft | 239 kts | 240° |
| 2026-05-06 20:31 | 39.52834 | 2.96332 | 8672 ft | 239 kts | 240° |
| 2026-05-06 20:31 | 39.52004 | 2.94496 | 8364 ft | 239 kts | 240° |
| 2026-05-06 20:32 | 39.51163 | 2.92640 | 8064 ft | 238 kts | 240° |
| 2026-05-06 20:32 | 39.50332 | 2.90807 | 7764 ft | 237 kts | 240° |
| 2026-05-06 20:32 | 39.49511 | 2.88997 | 7445 ft | 238 kts | 241° |
| 2026-05-06 20:32 | 39.48664 | 2.87131 | 7121 ft | 239 kts | 241° |
| 2026-05-06 20:33 | 39.47816 | 2.85263 | 6805 ft | 239 kts | 241° |
| 2026-05-06 20:33 | 39.46980 | 2.83424 | 6511 ft | 238 kts | 240° |
| 2026-05-06 20:33 | 39.46143 | 2.81581 | 6197 ft | 239 kts | 240° |
| 2026-05-06 20:33 | 39.45311 | 2.79745 | 5886 ft | 239 kts | 240° |
| 2026-05-06 20:34 | 39.44472 | 2.77908 | 5608 ft | 238 kts | 240° |
| 2026-05-06 20:34 | 39.43816 | 2.75951 | 5321 ft | 236 kts | 260° |
| 2026-05-06 20:34 | 39.43785 | 2.73864 | 5124 ft | 229 kts | 280° |
| 2026-05-06 20:34 | 39.44081 | 2.71898 | 4980 ft | 221 kts | 283° |
| 2026-05-06 20:35 | 39.44416 | 2.69955 | 4785 ft | 216 kts | 283° |
| 2026-05-06 20:35 | 39.44736 | 2.68073 | 4618 ft | 211 kts | 283° |
| 2026-05-06 20:35 | 39.45038 | 2.66248 | 4412 ft | 207 kts | 283° |
| 2026-05-06 20:35 | 39.45330 | 2.64432 | 4230 ft | 201 kts | 282° |
| 2026-05-06 20:36 | 39.45599 | 2.62733 | 4081 ft | 192 kts | 282° |
| 2026-05-06 20:36 | 39.45865 | 2.61050 | 3830 ft | 188 kts | 282° |
| 2026-05-06 20:36 | 39.46124 | 2.59403 | 3577 ft | 184 kts | 282° |
| 2026-05-06 20:36 | 39.46376 | 2.57806 | 3358 ft | 178 kts | 282° |
| 2026-05-06 20:37 | 39.46619 | 2.56254 | 3095 ft | 174 kts | 282° |
| 2026-05-06 20:37 | 39.46982 | 2.54814 | 2941 ft | 160 kts | 311° |
| 2026-05-06 20:37 | 39.47910 | 2.54269 | 2923 ft | 149 kts | 13° |
| 2026-05-06 20:37 | 39.48672 | 2.55018 | 2952 ft | 144 kts | 66° |
| 2026-05-06 20:38 | 39.48976 | 2.56268 | 2976 ft | 147 kts | 78° |
| 2026-05-06 20:38 | 39.49185 | 2.57557 | 2966 ft | 147 kts | 80° |
| 2026-05-06 20:38 | 39.49419 | 2.58863 | 2970 ft | 147 kts | 76° |
| 2026-05-06 20:38 | 39.49750 | 2.60106 | 2967 ft | 148 kts | 69° |
| 2026-05-06 20:39 | 39.50176 | 2.61298 | 2880 ft | 144 kts | 65° |
| 2026-05-06 20:39 | 39.50640 | 2.62418 | 2612 ft | 140 kts | 62° |
| 2026-05-06 20:39 | 39.51145 | 2.63517 | 2205 ft | 145 kts | 60° |
| 2026-05-06 20:39 | 39.51667 | 2.64595 | 1851 ft | 146 kts | 60° |
| 2026-05-06 20:40 | 39.52208 | 2.65702 | 1485 ft | 146 kts | 60° |
| 2026-05-06 20:40 | 39.52741 | 2.66811 | 1095 ft | 142 kts | 60° |
| 2026-05-06 20:40 | 39.53242 | 2.67867 | 784 ft | 133 kts | 61° |
| 2026-05-06 20:40 | 39.53682 | 2.68823 | 538 ft | 123 kts | 62° |
| 2026-05-06 20:41 | 39.54102 | 2.69758 | 356 ft | 127 kts | 62° |
| 2026-05-06 20:41 | 39.54571 | 2.70757 | 146 ft | 130 kts | 60° |
| 2026-05-06 20:41 | 39.55000 | 2.71674 | 39 ft | 115 kts | 59° |
| 2026-05-06 20:41 | 39.55336 | 2.72385 | 39 ft | 66 kts | 59° |
| 2026-05-06 20:42 | 39.55491 | 2.72711 | 39 ft | 28 kts | 60° |
| 2026-05-06 20:42 | 39.55438 | 2.72905 | 39 ft | 24 kts | 123° |
| 2026-05-06 20:42 | 39.55331 | 2.73001 | 39 ft | 18 kts | 149° |
| 2026-05-06 20:42 | 39.55232 | 2.73009 | 39 ft | 17 kts | 237° |
| 2026-05-06 20:43 | 39.55194 | 2.72942 | 39 ft | 5 kts | 187° |
| 2026-05-06 20:43 | 39.55154 | 2.72957 | 39 ft | 2 kts | 164° |
| 2026-05-06 20:43 | 39.55141 | 2.72962 | 39 ft | 1 kts | 164° |
| 2026-05-06 20:43 | 39.55132 | 2.72966 | 39 ft | 1 kts | 163° |
| 2026-05-06 20:44 | 39.55130 | 2.72966 | 39 ft | 0 kts | 163° |